sensor_id;sensor_type;location;lat;lon;timestamp;P1;P2;P0
77515;PMS5003;66627;29.424;-98.496;2023-12-29T00:02:23;7;7;
77515;PMS5003;66627;29.424;-98.496;2023-12-29T00:04:50;6;4;
77515;PMS5003;66627;29.424;-98.496;2023-12-29T00:07:14;6;6;
77515;PMS5003;66627;29.424;-98.496;2023-12-29T00:09:39;12;9;
77515;PMS5003;66627;29.424;-98.496;2023-12-29T00:12:05;17;17;
77515;PMS5003;66627;29.424;-98.496;2023-12-29T00:14:30;52;49;
77515;PMS5003;66627;29.424;-98.496;2023-12-29T00:16:55;83;71;
77515;PMS5003;66627;29.424;-98.496;2023-12-29T00:19:22;52;47;
77515;PMS5003;66627;29.424;-98.496;2023-12-29T00:21:46;67;63;
77515;PMS5003;66627;29.424;-98.496;2023-12-29T00:24:11;48;44;
77515;PMS5003;66627;29.424;-98.496;2023-12-29T00:26:37;64;61;
77515;PMS5003;66627;29.424;-98.496;2023-12-29T00:29:03;123;116;
77515;PMS5003;66627;29.424;-98.496;2023-12-29T00:31:29;138;121;
77515;PMS5003;66627;29.424;-98.496;2023-12-29T00:33:55;113;105;
77515;PMS5003;66627;29.424;-98.496;2023-12-29T00:36:21;79;73;
77515;PMS5003;66627;29.424;-98.496;2023-12-29T00:38:46;53;50;
77515;PMS5003;66627;29.424;-98.496;2023-12-29T00:41:11;43;41;
77515;PMS5003;66627;29.424;-98.496;2023-12-29T00:43:36;40;38;
77515;PMS5003;66627;29.424;-98.496;2023-12-29T00:46:01;48;41;
77515;PMS5003;66627;29.424;-98.496;2023-12-29T00:48:26;35;30;
77515;PMS5003;66627;29.424;-98.496;2023-12-29T00:50:52;22;21;
77515;PMS5003;66627;29.424;-98.496;2023-12-29T00:53:18;17;15;
77515;PMS5003;66627;29.424;-98.496;2023-12-29T00:55:45;11;9;
77515;PMS5003;66627;29.424;-98.496;2023-12-29T00:58:09;10;10;
77515;PMS5003;66627;29.424;-98.496;2023-12-29T01:00:36;10;10;
77515;PMS5003;66627;29.424;-98.496;2023-12-29T01:03:00;12;11;
77515;PMS5003;66627;29.424;-98.496;2023-12-29T01:05:27;12;12;
77515;PMS5003;66627;29.424;-98.496;2023-12-29T01:07:51;10;9;
77515;PMS5003;66627;29.424;-98.496;2023-12-29T01:10:17;10;10;
77515;PMS5003;66627;29.424;-98.496;2023-12-29T01:12:42;6;6;
77515;PMS5003;66627;29.424;-98.496;2023-12-29T01:15:08;7;6;
77515;PMS5003;66627;29.424;-98.496;2023-12-29T01:17:33;8;8;
77515;PMS5003;66627;29.424;-98.496;2023-12-29T01:19:58;15;15;
77515;PMS5003;66627;29.424;-98.496;2023-12-29T01:22:24;21;20;
77515;PMS5003;66627;29.424;-98.496;2023-12-29T01:24:49;17;15;
77515;PMS5003;66627;29.424;-98.496;2023-12-29T01:27:14;14;14;
77515;PMS5003;66627;29.424;-98.496;2023-12-29T01:29:40;9;9;
77515;PMS5003;66627;29.424;-98.496;2023-12-29T01:32:06;10;9;
77515;PMS5003;66627;29.424;-98.496;2023-12-29T01:34:31;10;10;
77515;PMS5003;66627;29.424;-98.496;2023-12-29T01:36:56;12;11;
77515;PMS5003;66627;29.424;-98.496;2023-12-29T01:39:22;16;11;
77515;PMS5003;66627;29.424;-98.496;2023-12-29T01:41:48;14;14;
77515;PMS5003;66627;29.424;-98.496;2023-12-29T01:44:18;16;16;
77515;PMS5003;66627;29.424;-98.496;2023-12-29T01:46:37;12;12;
77515;PMS5003;66627;29.424;-98.496;2023-12-29T01:49:03;16;14;
77515;PMS5003;66627;29.424;-98.496;2023-12-29T01:51:28;14;12;
77515;PMS5003;66627;29.424;-98.496;2023-12-29T01:53:54;14;12;
77515;PMS5003;66627;29.424;-98.496;2023-12-29T01:56:19;14;12;
77515;PMS5003;66627;29.424;-98.496;2023-12-29T01:58:45;8;6;
77515;PMS5003;66627;29.424;-98.496;2023-12-29T02:01:09;12;11;
77515;PMS5003;66627;29.424;-98.496;2023-12-29T02:03:35;11;10;
77515;PMS5003;66627;29.424;-98.496;2023-12-29T02:06:00;13;10;
77515;PMS5003;66627;29.424;-98.496;2023-12-29T02:08:27;12;11;
77515;PMS5003;66627;29.424;-98.496;2023-12-29T02:10:51;12;10;
77515;PMS5003;66627;29.424;-98.496;2023-12-29T02:13:17;9;9;
77515;PMS5003;66627;29.424;-98.496;2023-12-29T02:15:43;12;11;
77515;PMS5003;66627;29.424;-98.496;2023-12-29T02:18:09;8;8;
77515;PMS5003;66627;29.424;-98.496;2023-12-29T02:20:33;8;6;
77515;PMS5003;66627;29.424;-98.496;2023-12-29T02:22:59;7;7;
77515;PMS5003;66627;29.424;-98.496;2023-12-29T02:25:24;9;7;
77515;PMS5003;66627;29.424;-98.496;2023-12-29T02:27:51;11;10;
77515;PMS5003;66627;29.424;-98.496;2023-12-29T02:30:18;10;10;
77515;PMS5003;66627;29.424;-98.496;2023-12-29T02:32:42;12;11;
77515;PMS5003;66627;29.424;-98.496;2023-12-29T02:35:07;11;11;
77515;PMS5003;66627;29.424;-98.496;2023-12-29T02:37:31;11;11;
77515;PMS5003;66627;29.424;-98.496;2023-12-29T02:39:56;17;14;
77515;PMS5003;66627;29.424;-98.496;2023-12-29T02:42:21;15;15;
77515;PMS5003;66627;29.424;-98.496;2023-12-29T02:44:47;16;11;
77515;PMS5003;66627;29.424;-98.496;2023-12-29T02:47:12;16;16;
77515;PMS5003;66627;29.424;-98.496;2023-12-29T02:49:37;12;12;
77515;PMS5003;66627;29.424;-98.496;2023-12-29T02:52:03;9;9;
77515;PMS5003;66627;29.424;-98.496;2023-12-29T02:54:28;7;5;
77515;PMS5003;66627;29.424;-98.496;2023-12-29T02:56:53;6;6;
77515;PMS5003;66627;29.424;-98.496;2023-12-29T02:59:19;3;3;
77515;PMS5003;66627;29.424;-98.496;2023-12-29T03:01:44;3;3;
77515;PMS5003;66627;29.424;-98.496;2023-12-29T03:04:09;2;2;
77515;PMS5003;66627;29.424;-98.496;2023-12-29T03:06:36;4;2;
77515;PMS5003;66627;29.424;-98.496;2023-12-29T03:09:00;2;2;
77515;PMS5003;66627;29.424;-98.496;2023-12-29T03:11:25;1;1;
77515;PMS5003;66627;29.424;-98.496;2023-12-29T03:13:50;3;3;
77515;PMS5003;66627;29.424;-98.496;2023-12-29T03:16:16;3;3;
77515;PMS5003;66627;29.424;-98.496;2023-12-29T03:18:41;4;3;
77515;PMS5003;66627;29.424;-98.496;2023-12-29T03:21:07;4;3;
77515;PMS5003;66627;29.424;-98.496;2023-12-29T03:23:31;1;1;
77515;PMS5003;66627;29.424;-98.496;2023-12-29T03:25:58;3;3;
77515;PMS5003;66627;29.424;-98.496;2023-12-29T03:28:22;2;2;
77515;PMS5003;66627;29.424;-98.496;2023-12-29T03:30:47;2;2;
77515;PMS5003;66627;29.424;-98.496;2023-12-29T03:33:13;2;2;
77515;PMS5003;66627;29.424;-98.496;2023-12-29T03:35:38;2;2;
77515;PMS5003;66627;29.424;-98.496;2023-12-29T03:38:03;4;3;
77515;PMS5003;66627;29.424;-98.496;2023-12-29T03:40:28;1;1;
77515;PMS5003;66627;29.424;-98.496;2023-12-29T03:42:56;1;1;
77515;PMS5003;66627;29.424;-98.496;2023-12-29T03:45:19;4;2;
77515;PMS5003;66627;29.424;-98.496;2023-12-29T03:47:45;2;2;
77515;PMS5003;66627;29.424;-98.496;2023-12-29T03:50:10;1;1;
77515;PMS5003;66627;29.424;-98.496;2023-12-29T03:52:37;1;1;
77515;PMS5003;66627;29.424;-98.496;2023-12-29T03:55:00;2;2;
77515;PMS5003;66627;29.424;-98.496;2023-12-29T03:57:25;2;1;
77515;PMS5003;66627;29.424;-98.496;2023-12-29T03:59:52;2;2;
77515;PMS5003;66627;29.424;-98.496;2023-12-29T04:02:16;3;3;
77515;PMS5003;66627;29.424;-98.496;2023-12-29T04:04:42;2;1;
77515;PMS5003;66627;29.424;-98.496;2023-12-29T04:07:06;4;3;
77515;PMS5003;66627;29.424;-98.496;2023-12-29T04:09:32;4;3;
77515;PMS5003;66627;29.424;-98.496;2023-12-29T04:11:57;2;1;
77515;PMS5003;66627;29.424;-98.496;2023-12-29T04:14:24;3;3;
77515;PMS5003;66627;29.424;-98.496;2023-12-29T04:16:48;3;3;
77515;PMS5003;66627;29.424;-98.496;2023-12-29T04:19:13;4;4;
77515;PMS5003;66627;29.424;-98.496;2023-12-29T04:21:38;4;4;
77515;PMS5003;66627;29.424;-98.496;2023-12-29T04:24:04;6;4;
77515;PMS5003;66627;29.424;-98.496;2023-12-29T04:28:56;6;5;
77515;PMS5003;66627;29.424;-98.496;2023-12-29T04:31:20;3;3;
77515;PMS5003;66627;29.424;-98.496;2023-12-29T04:33:44;4;4;
77515;PMS5003;66627;29.424;-98.496;2023-12-29T04:36:12;5;5;
77515;PMS5003;66627;29.424;-98.496;2023-12-29T04:38:35;4;4;
77515;PMS5003;66627;29.424;-98.496;2023-12-29T04:41:01;3;3;
77515;PMS5003;66627;29.424;-98.496;2023-12-29T04:43:25;4;4;
77515;PMS5003;66627;29.424;-98.496;2023-12-29T04:45:51;6;6;
77515;PMS5003;66627;29.424;-98.496;2023-12-29T04:48:16;3;3;
77515;PMS5003;66627;29.424;-98.496;2023-12-29T04:50:42;4;4;
77515;PMS5003;66627;29.424;-98.496;2023-12-29T04:53:08;6;5;
77515;PMS5003;66627;29.424;-98.496;2023-12-29T04:55:33;7;7;
77515;PMS5003;66627;29.424;-98.496;2023-12-29T04:57:58;7;7;
77515;PMS5003;66627;29.424;-98.496;2023-12-29T05:00:23;8;8;
77515;PMS5003;66627;29.424;-98.496;2023-12-29T05:02:48;8;8;
77515;PMS5003;66627;29.424;-98.496;2023-12-29T05:05:14;7;7;
77515;PMS5003;66627;29.424;-98.496;2023-12-29T05:07:40;8;7;
77515;PMS5003;66627;29.424;-98.496;2023-12-29T05:10:06;11;11;
77515;PMS5003;66627;29.424;-98.496;2023-12-29T05:12:29;18;18;
77515;PMS5003;66627;29.424;-98.496;2023-12-29T05:14:55;20;19;
77515;PMS5003;66627;29.424;-98.496;2023-12-29T05:17:20;15;15;
77515;PMS5003;66627;29.424;-98.496;2023-12-29T05:19:46;12;11;
77515;PMS5003;66627;29.424;-98.496;2023-12-29T05:22:11;6;6;
77515;PMS5003;66627;29.424;-98.496;2023-12-29T05:24:36;6;6;
77515;PMS5003;66627;29.424;-98.496;2023-12-29T05:27:01;6;4;
77515;PMS5003;66627;29.424;-98.496;2023-12-29T05:29:27;6;6;
77515;PMS5003;66627;29.424;-98.496;2023-12-29T05:31:54;7;7;
77515;PMS5003;66627;29.424;-98.496;2023-12-29T05:34:17;4;4;
77515;PMS5003;66627;29.424;-98.496;2023-12-29T05:36:44;5;5;
77515;PMS5003;66627;29.424;-98.496;2023-12-29T05:39:08;2;2;
77515;PMS5003;66627;29.424;-98.496;2023-12-29T05:41:34;4;4;
77515;PMS5003;66627;29.424;-98.496;2023-12-29T05:43:58;4;4;
77515;PMS5003;66627;29.424;-98.496;2023-12-29T05:46:25;5;5;
77515;PMS5003;66627;29.424;-98.496;2023-12-29T05:48:50;5;5;
77515;PMS5003;66627;29.424;-98.496;2023-12-29T05:51:16;4;4;
77515;PMS5003;66627;29.424;-98.496;2023-12-29T05:53:42;3;3;
77515;PMS5003;66627;29.424;-98.496;2023-12-29T05:56:06;4;4;
77515;PMS5003;66627;29.424;-98.496;2023-12-29T05:58:30;4;4;
77515;PMS5003;66627;29.424;-98.496;2023-12-29T06:00:56;6;6;
77515;PMS5003;66627;29.424;-98.496;2023-12-29T06:03:22;9;7;
77515;PMS5003;66627;29.424;-98.496;2023-12-29T06:05:46;5;5;
77515;PMS5003;66627;29.424;-98.496;2023-12-29T06:08:11;9;7;
77515;PMS5003;66627;29.424;-98.496;2023-12-29T06:10:37;9;8;
77515;PMS5003;66627;29.424;-98.496;2023-12-29T06:13:03;8;7;
77515;PMS5003;66627;29.424;-98.496;2023-12-29T06:15:28;10;10;
77515;PMS5003;66627;29.424;-98.496;2023-12-29T06:17:53;7;7;
77515;PMS5003;66627;29.424;-98.496;2023-12-29T06:20:18;7;6;
77515;PMS5003;66627;29.424;-98.496;2023-12-29T06:22:44;6;4;
77515;PMS5003;66627;29.424;-98.496;2023-12-29T06:25:09;3;3;
77515;PMS5003;66627;29.424;-98.496;2023-12-29T06:27:35;3;3;
77515;PMS5003;66627;29.424;-98.496;2023-12-29T06:30:00;5;5;
77515;PMS5003;66627;29.424;-98.496;2023-12-29T06:32:25;4;4;
77515;PMS5003;66627;29.424;-98.496;2023-12-29T06:34:51;4;4;
77515;PMS5003;66627;29.424;-98.496;2023-12-29T06:37:15;2;2;
77515;PMS5003;66627;29.424;-98.496;2023-12-29T06:39:41;2;2;
77515;PMS5003;66627;29.424;-98.496;2023-12-29T06:42:06;3;3;
77515;PMS5003;66627;29.424;-98.496;2023-12-29T06:44:33;2;2;
77515;PMS5003;66627;29.424;-98.496;2023-12-29T06:46:56;6;4;
77515;PMS5003;66627;29.424;-98.496;2023-12-29T06:49:22;5;3;
77515;PMS5003;66627;29.424;-98.496;2023-12-29T06:51:47;4;4;
77515;PMS5003;66627;29.424;-98.496;2023-12-29T06:54:12;3;3;
77515;PMS5003;66627;29.424;-98.496;2023-12-29T06:56:37;4;4;
77515;PMS5003;66627;29.424;-98.496;2023-12-29T06:59:04;4;4;
77515;PMS5003;66627;29.424;-98.496;2023-12-29T07:01:28;7;7;
77515;PMS5003;66627;29.424;-98.496;2023-12-29T07:03:54;5;5;
77515;PMS5003;66627;29.424;-98.496;2023-12-29T07:06:20;7;7;
77515;PMS5003;66627;29.424;-98.496;2023-12-29T07:08:45;9;9;
77515;PMS5003;66627;29.424;-98.496;2023-12-29T07:11:10;11;10;
77515;PMS5003;66627;29.424;-98.496;2023-12-29T07:13:36;13;12;
77515;PMS5003;66627;29.424;-98.496;2023-12-29T07:16:01;11;10;
77515;PMS5003;66627;29.424;-98.496;2023-12-29T07:18:27;7;7;
77515;PMS5003;66627;29.424;-98.496;2023-12-29T07:20:52;8;7;
77515;PMS5003;66627;29.424;-98.496;2023-12-29T07:23:17;5;5;
77515;PMS5003;66627;29.424;-98.496;2023-12-29T07:25:42;5;5;
77515;PMS5003;66627;29.424;-98.496;2023-12-29T07:28:07;6;4;
77515;PMS5003;66627;29.424;-98.496;2023-12-29T07:30:33;5;5;
77515;PMS5003;66627;29.424;-98.496;2023-12-29T07:32:58;3;3;
77515;PMS5003;66627;29.424;-98.496;2023-12-29T07:35:23;4;2;
77515;PMS5003;66627;29.424;-98.496;2023-12-29T07:37:49;5;5;
77515;PMS5003;66627;29.424;-98.496;2023-12-29T07:40:14;6;6;
77515;PMS5003;66627;29.424;-98.496;2023-12-29T07:42:39;5;5;
77515;PMS5003;66627;29.424;-98.496;2023-12-29T07:45:04;5;4;
77515;PMS5003;66627;29.424;-98.496;2023-12-29T07:47:29;4;4;
77515;PMS5003;66627;29.424;-98.496;2023-12-29T07:49:55;4;4;
77515;PMS5003;66627;29.424;-98.496;2023-12-29T07:52:20;6;5;
77515;PMS5003;66627;29.424;-98.496;2023-12-29T07:54:46;4;4;
77515;PMS5003;66627;29.424;-98.496;2023-12-29T07:57:10;6;6;
77515;PMS5003;66627;29.424;-98.496;2023-12-29T07:59:36;4;4;
77515;PMS5003;66627;29.424;-98.496;2023-12-29T08:02:01;4;4;
77515;PMS5003;66627;29.424;-98.496;2023-12-29T08:04:26;5;5;
77515;PMS5003;66627;29.424;-98.496;2023-12-29T08:06:51;6;6;
77515;PMS5003;66627;29.424;-98.496;2023-12-29T08:09:17;5;5;
77515;PMS5003;66627;29.424;-98.496;2023-12-29T08:11:42;5;4;
77515;PMS5003;66627;29.424;-98.496;2023-12-29T08:14:08;4;4;
77515;PMS5003;66627;29.424;-98.496;2023-12-29T08:16:37;6;6;
77515;PMS5003;66627;29.424;-98.496;2023-12-29T08:18:58;5;5;
77515;PMS5003;66627;29.424;-98.496;2023-12-29T08:21:24;7;6;
77515;PMS5003;66627;29.424;-98.496;2023-12-29T08:23:48;6;6;
77515;PMS5003;66627;29.424;-98.496;2023-12-29T08:26:15;7;5;
77515;PMS5003;66627;29.424;-98.496;2023-12-29T08:28:41;5;5;
77515;PMS5003;66627;29.424;-98.496;2023-12-29T08:31:06;5;5;
77515;PMS5003;66627;29.424;-98.496;2023-12-29T08:33:30;5;5;
77515;PMS5003;66627;29.424;-98.496;2023-12-29T08:35:55;6;6;
77515;PMS5003;66627;29.424;-98.496;2023-12-29T08:38:22;8;8;
77515;PMS5003;66627;29.424;-98.496;2023-12-29T08:40:46;7;5;
77515;PMS5003;66627;29.424;-98.496;2023-12-29T08:43:11;6;6;
77515;PMS5003;66627;29.424;-98.496;2023-12-29T08:45:37;6;6;
77515;PMS5003;66627;29.424;-98.496;2023-12-29T08:48:02;7;6;
77515;PMS5003;66627;29.424;-98.496;2023-12-29T08:50:27;8;7;
77515;PMS5003;66627;29.424;-98.496;2023-12-29T08:52:54;7;6;
77515;PMS5003;66627;29.424;-98.496;2023-12-29T08:55:18;5;5;
77515;PMS5003;66627;29.424;-98.496;2023-12-29T08:57:43;5;5;
77515;PMS5003;66627;29.424;-98.496;2023-12-29T09:00:08;8;8;
77515;PMS5003;66627;29.424;-98.496;2023-12-29T09:02:33;7;7;
77515;PMS5003;66627;29.424;-98.496;2023-12-29T09:04:59;6;6;
77515;PMS5003;66627;29.424;-98.496;2023-12-29T09:07:25;7;7;
77515;PMS5003;66627;29.424;-98.496;2023-12-29T09:09:51;8;8;
77515;PMS5003;66627;29.424;-98.496;2023-12-29T09:12:15;6;6;
77515;PMS5003;66627;29.424;-98.496;2023-12-29T09:14:40;6;6;
77515;PMS5003;66627;29.424;-98.496;2023-12-29T09:17:06;5;5;
77515;PMS5003;66627;29.424;-98.496;2023-12-29T09:19:31;7;6;
77515;PMS5003;66627;29.424;-98.496;2023-12-29T09:21:57;8;8;
77515;PMS5003;66627;29.424;-98.496;2023-12-29T09:24:23;8;8;
77515;PMS5003;66627;29.424;-98.496;2023-12-29T09:26:47;10;10;
77515;PMS5003;66627;29.424;-98.496;2023-12-29T09:29:12;8;8;
77515;PMS5003;66627;29.424;-98.496;2023-12-29T09:31:38;9;9;
77515;PMS5003;66627;29.424;-98.496;2023-12-29T09:34:03;14;12;
77515;PMS5003;66627;29.424;-98.496;2023-12-29T09:36:29;12;11;
77515;PMS5003;66627;29.424;-98.496;2023-12-29T09:38:54;12;12;
77515;PMS5003;66627;29.424;-98.496;2023-12-29T09:41:20;11;10;
77515;PMS5003;66627;29.424;-98.496;2023-12-29T09:43:45;13;10;
77515;PMS5003;66627;29.424;-98.496;2023-12-29T09:46:11;8;8;
77515;PMS5003;66627;29.424;-98.496;2023-12-29T09:48:37;7;7;
77515;PMS5003;66627;29.424;-98.496;2023-12-29T09:51:03;7;7;
77515;PMS5003;66627;29.424;-98.496;2023-12-29T09:53:27;5;5;
77515;PMS5003;66627;29.424;-98.496;2023-12-29T09:55:51;7;7;
77515;PMS5003;66627;29.424;-98.496;2023-12-29T09:58:17;8;8;
77515;PMS5003;66627;29.424;-98.496;2023-12-29T10:00:42;5;5;
77515;PMS5003;66627;29.424;-98.496;2023-12-29T10:03:08;6;6;
77515;PMS5003;66627;29.424;-98.496;2023-12-29T10:05:34;6;5;
77515;PMS5003;66627;29.424;-98.496;2023-12-29T10:07:58;8;3;
77515;PMS5003;66627;29.424;-98.496;2023-12-29T10:10:23;4;4;
77515;PMS5003;66627;29.424;-98.496;2023-12-29T10:12:50;6;6;
77515;PMS5003;66627;29.424;-98.496;2023-12-29T10:15:17;3;3;
77515;PMS5003;66627;29.424;-98.496;2023-12-29T10:17:43;5;5;
77515;PMS5003;66627;29.424;-98.496;2023-12-29T10:20:06;5;5;
77515;PMS5003;66627;29.424;-98.496;2023-12-29T10:22:34;4;4;
77515;PMS5003;66627;29.424;-98.496;2023-12-29T10:24:57;2;2;
77515;PMS5003;66627;29.424;-98.496;2023-12-29T10:27:22;3;3;
77515;PMS5003;66627;29.424;-98.496;2023-12-29T10:29:47;4;4;
77515;PMS5003;66627;29.424;-98.496;2023-12-29T10:32:12;4;4;
77515;PMS5003;66627;29.424;-98.496;2023-12-29T10:34:37;2;2;
77515;PMS5003;66627;29.424;-98.496;2023-12-29T10:37:02;4;3;
77515;PMS5003;66627;29.424;-98.496;2023-12-29T10:39:28;5;5;
77515;PMS5003;66627;29.424;-98.496;2023-12-29T10:44:19;2;2;
77515;PMS5003;66627;29.424;-98.496;2023-12-29T10:46:44;4;3;
77515;PMS5003;66627;29.424;-98.496;2023-12-29T10:49:09;5;3;
77515;PMS5003;66627;29.424;-98.496;2023-12-29T10:51:35;3;3;
77515;PMS5003;66627;29.424;-98.496;2023-12-29T10:53:59;2;2;
77515;PMS5003;66627;29.424;-98.496;2023-12-29T10:56:26;3;3;
77515;PMS5003;66627;29.424;-98.496;2023-12-29T10:58:58;4;4;
77515;PMS5003;66627;29.424;-98.496;2023-12-29T11:01:16;3;3;
77515;PMS5003;66627;29.424;-98.496;2023-12-29T11:03:41;3;3;
77515;PMS5003;66627;29.424;-98.496;2023-12-29T11:06:06;5;4;
77515;PMS5003;66627;29.424;-98.496;2023-12-29T11:08:36;3;3;
77515;PMS5003;66627;29.424;-98.496;2023-12-29T11:10:58;4;4;
77515;PMS5003;66627;29.424;-98.496;2023-12-29T11:13:23;5;3;
77515;PMS5003;66627;29.424;-98.496;2023-12-29T11:15:47;3;3;
77515;PMS5003;66627;29.424;-98.496;2023-12-29T11:18:14;2;2;
77515;PMS5003;66627;29.424;-98.496;2023-12-29T11:20:39;2;2;
77515;PMS5003;66627;29.424;-98.496;2023-12-29T11:23:03;3;3;
77515;PMS5003;66627;29.424;-98.496;2023-12-29T11:25:29;3;3;
77515;PMS5003;66627;29.424;-98.496;2023-12-29T11:27:55;5;3;
77515;PMS5003;66627;29.424;-98.496;2023-12-29T11:30:20;1;1;
77515;PMS5003;66627;29.424;-98.496;2023-12-29T11:32:47;3;3;
77515;PMS5003;66627;29.424;-98.496;2023-12-29T11:35:12;2;2;
77515;PMS5003;66627;29.424;-98.496;2023-12-29T11:37:49;2;2;
77515;PMS5003;66627;29.424;-98.496;2023-12-29T11:40:04;2;2;
77515;PMS5003;66627;29.424;-98.496;2023-12-29T11:42:27;4;4;
77515;PMS5003;66627;29.424;-98.496;2023-12-29T11:44:53;4;4;
77515;PMS5003;66627;29.424;-98.496;2023-12-29T11:52:07;4;4;
77515;PMS5003;66627;29.424;-98.496;2023-12-29T11:54:34;5;5;
77515;PMS5003;66627;29.424;-98.496;2023-12-29T11:56:59;5;4;
77515;PMS5003;66627;29.424;-98.496;2023-12-29T11:59:25;4;4;
77515;PMS5003;66627;29.424;-98.496;2023-12-29T12:01:49;3;3;
77515;PMS5003;66627;29.424;-98.496;2023-12-29T12:06:40;3;3;
77515;PMS5003;66627;29.424;-98.496;2023-12-29T12:13:57;2;2;
77515;PMS5003;66627;29.424;-98.496;2023-12-29T12:18:46;4;4;
77515;PMS5003;66627;29.424;-98.496;2023-12-29T12:21:11;4;4;
77515;PMS5003;66627;29.424;-98.496;2023-12-29T12:23:36;3;3;
77515;PMS5003;66627;29.424;-98.496;2023-12-29T12:26:02;3;2;
77515;PMS5003;66627;29.424;-98.496;2023-12-29T12:28:27;2;2;
77515;PMS5003;66627;29.424;-98.496;2023-12-29T12:30:52;3;3;
77515;PMS5003;66627;29.424;-98.496;2023-12-29T12:33:18;6;4;
77515;PMS5003;66627;29.424;-98.496;2023-12-29T12:35:43;3;3;
77515;PMS5003;66627;29.424;-98.496;2023-12-29T12:38:12;4;4;
77515;PMS5003;66627;29.424;-98.496;2023-12-29T12:40:34;4;4;
77515;PMS5003;66627;29.424;-98.496;2023-12-29T12:43:00;3;3;
77515;PMS5003;66627;29.424;-98.496;2023-12-29T12:45:26;4;4;
77515;PMS5003;66627;29.424;-98.496;2023-12-29T12:47:52;2;2;
77515;PMS5003;66627;29.424;-98.496;2023-12-29T12:50:16;7;6;
77515;PMS5003;66627;29.424;-98.496;2023-12-29T12:52:41;3;3;
77515;PMS5003;66627;29.424;-98.496;2023-12-29T12:55:06;3;3;
77515;PMS5003;66627;29.424;-98.496;2023-12-29T12:57:33;5;4;
77515;PMS5003;66627;29.424;-98.496;2023-12-29T12:59:59;6;4;
77515;PMS5003;66627;29.424;-98.496;2023-12-29T13:02:23;3;3;
77515;PMS5003;66627;29.424;-98.496;2023-12-29T13:04:48;4;4;
77515;PMS5003;66627;29.424;-98.496;2023-12-29T13:07:15;5;3;
77515;PMS5003;66627;29.424;-98.496;2023-12-29T13:09:38;3;3;
77515;PMS5003;66627;29.424;-98.496;2023-12-29T13:12:09;3;3;
77515;PMS5003;66627;29.424;-98.496;2023-12-29T13:14:29;5;4;
77515;PMS5003;66627;29.424;-98.496;2023-12-29T13:16:55;6;5;
77515;PMS5003;66627;29.424;-98.496;2023-12-29T13:19:20;3;3;
77515;PMS5003;66627;29.424;-98.496;2023-12-29T13:21:46;4;4;
77515;PMS5003;66627;29.424;-98.496;2023-12-29T13:24:11;3;3;
77515;PMS5003;66627;29.424;-98.496;2023-12-29T13:26:35;3;3;
77515;PMS5003;66627;29.424;-98.496;2023-12-29T13:29:02;5;5;
77515;PMS5003;66627;29.424;-98.496;2023-12-29T13:31:27;5;5;
77515;PMS5003;66627;29.424;-98.496;2023-12-29T13:33:52;5;4;
77515;PMS5003;66627;29.424;-98.496;2023-12-29T13:36:19;4;4;
77515;PMS5003;66627;29.424;-98.496;2023-12-29T13:38:44;6;3;
77515;PMS5003;66627;29.424;-98.496;2023-12-29T13:41:09;8;8;
77515;PMS5003;66627;29.424;-98.496;2023-12-29T13:43:34;9;9;
77515;PMS5003;66627;29.424;-98.496;2023-12-29T13:45:58;10;9;
77515;PMS5003;66627;29.424;-98.496;2023-12-29T13:48:24;7;7;
77515;PMS5003;66627;29.424;-98.496;2023-12-29T13:50:49;6;6;
77515;PMS5003;66627;29.424;-98.496;2023-12-29T13:53:16;6;5;
77515;PMS5003;66627;29.424;-98.496;2023-12-29T13:55:39;4;4;
77515;PMS5003;66627;29.424;-98.496;2023-12-29T13:58:09;9;7;
77515;PMS5003;66627;29.424;-98.496;2023-12-29T14:00:30;9;9;
77515;PMS5003;66627;29.424;-98.496;2023-12-29T14:03:02;13;10;
77515;PMS5003;66627;29.424;-98.496;2023-12-29T14:05:24;13;9;
77515;PMS5003;66627;29.424;-98.496;2023-12-29T14:07:47;12;9;
77515;PMS5003;66627;29.424;-98.496;2023-12-29T14:10:12;7;7;
77515;PMS5003;66627;29.424;-98.496;2023-12-29T14:12:37;8;8;
77515;PMS5003;66627;29.424;-98.496;2023-12-29T14:15:03;10;9;
77515;PMS5003;66627;29.424;-98.496;2023-12-29T14:17:28;8;8;
77515;PMS5003;66627;29.424;-98.496;2023-12-29T14:19:53;10;9;
77515;PMS5003;66627;29.424;-98.496;2023-12-29T14:22:21;11;11;
77515;PMS5003;66627;29.424;-98.496;2023-12-29T14:24:44;10;8;
77515;PMS5003;66627;29.424;-98.496;2023-12-29T14:27:10;7;7;
77515;PMS5003;66627;29.424;-98.496;2023-12-29T14:31:59;8;6;
77515;PMS5003;66627;29.424;-98.496;2023-12-29T14:34:24;4;4;
77515;PMS5003;66627;29.424;-98.496;2023-12-29T14:36:50;5;5;
77515;PMS5003;66627;29.424;-98.496;2023-12-29T14:39:16;5;5;
77515;PMS5003;66627;29.424;-98.496;2023-12-29T14:41:41;7;3;
77515;PMS5003;66627;29.424;-98.496;2023-12-29T14:44:06;7;5;
77515;PMS5003;66627;29.424;-98.496;2023-12-29T14:46:32;3;3;
77515;PMS5003;66627;29.424;-98.496;2023-12-29T14:48:57;3;3;
77515;PMS5003;66627;29.424;-98.496;2023-12-29T14:51:22;5;4;
77515;PMS5003;66627;29.424;-98.496;2023-12-29T14:53:49;3;3;
77515;PMS5003;66627;29.424;-98.496;2023-12-29T14:56:13;4;3;
77515;PMS5003;66627;29.424;-98.496;2023-12-29T14:58:39;3;2;
77515;PMS5003;66627;29.424;-98.496;2023-12-29T15:01:03;3;3;
77515;PMS5003;66627;29.424;-98.496;2023-12-29T15:03:29;4;4;
77515;PMS5003;66627;29.424;-98.496;2023-12-29T15:05:54;3;3;
77515;PMS5003;66627;29.424;-98.496;2023-12-29T15:08:20;3;3;
77515;PMS5003;66627;29.424;-98.496;2023-12-29T15:10:45;3;3;
77515;PMS5003;66627;29.424;-98.496;2023-12-29T15:13:10;3;3;
77515;PMS5003;66627;29.424;-98.496;2023-12-29T15:15:35;3;3;
77515;PMS5003;66627;29.424;-98.496;2023-12-29T15:18:00;3;3;
77515;PMS5003;66627;29.424;-98.496;2023-12-29T15:20:26;2;2;
77515;PMS5003;66627;29.424;-98.496;2023-12-29T15:22:51;4;4;
77515;PMS5003;66627;29.424;-98.496;2023-12-29T15:25:17;2;2;
77515;PMS5003;66627;29.424;-98.496;2023-12-29T15:27:42;1;1;
77515;PMS5003;66627;29.424;-98.496;2023-12-29T15:30:08;3;3;
77515;PMS5003;66627;29.424;-98.496;2023-12-29T15:32:33;4;3;
77515;PMS5003;66627;29.424;-98.496;2023-12-29T15:34:58;1;1;
77515;PMS5003;66627;29.424;-98.496;2023-12-29T15:37:23;3;2;
77515;PMS5003;66627;29.424;-98.496;2023-12-29T15:39:49;6;3;
77515;PMS5003;66627;29.424;-98.496;2023-12-29T15:42:14;2;1;
77515;PMS5003;66627;29.424;-98.496;2023-12-29T15:44:40;3;3;
77515;PMS5003;66627;29.424;-98.496;2023-12-29T15:47:04;3;3;
77515;PMS5003;66627;29.424;-98.496;2023-12-29T15:49:29;2;2;
77515;PMS5003;66627;29.424;-98.496;2023-12-29T15:51:55;2;2;
77515;PMS5003;66627;29.424;-98.496;2023-12-29T15:54:20;3;3;
77515;PMS5003;66627;29.424;-98.496;2023-12-29T15:56:45;3;3;
77515;PMS5003;66627;29.424;-98.496;2023-12-29T15:59:11;4;3;
77515;PMS5003;66627;29.424;-98.496;2023-12-29T16:01:36;1;1;
77515;PMS5003;66627;29.424;-98.496;2023-12-29T16:04:01;2;2;
77515;PMS5003;66627;29.424;-98.496;2023-12-29T16:06:27;2;2;
77515;PMS5003;66627;29.424;-98.496;2023-12-29T16:08:53;3;2;
77515;PMS5003;66627;29.424;-98.496;2023-12-29T16:11:19;2;2;
77515;PMS5003;66627;29.424;-98.496;2023-12-29T16:13:42;3;3;
77515;PMS5003;66627;29.424;-98.496;2023-12-29T16:16:07;0;0;
77515;PMS5003;66627;29.424;-98.496;2023-12-29T16:18:33;3;2;
77515;PMS5003;66627;29.424;-98.496;2023-12-29T16:20:58;2;2;